KLOL/LOL METAR and TAF weather

Enter ICAO airport designator
Station Type Date Time Source
KLOL METAR 2024/04/15 07:53 UTC NOAA

KLOL 150753Z AUTO 14004KT 10SM FEW027 SCT037 OVC080 03/02 A3003 RMK AO2 SLP172 T00330022 400830028


Station Type Date Time Source
KLOL Decoded METAR 2024/04/15 07:53 UTC NOAA

LOVELOCK DERBY FIELD, NV, United States (KLOL) 40-04N 118-34W 1189M
Apr 15, 2024 - 03:53 AM EDT / 2024.04.15 0753 UTC
Wind: from the SE (140 degrees) at 5 MPH (4 KT):0
Visibility: 10 mile(s):0
Sky conditions: overcast
Temperature: 37.9 F (3.3 C)
Dew Point: 36.0 F (2.2 C)
Relative Humidity: 92%
Pressure (altimeter): 30.03 in. Hg (1016 hPa)
ob: KLOL 150753Z AUTO 14004KT 10SM FEW027 SCT037 OVC080 03/02 A3003 RMK AO2 SLP172 T00330022 400830028
cycle: 8

Station Type Date Time Source
KLOL TAF 2010/01/05 05:22 UTC NOAA